sensor_id;sensor_type;location;lat;lon;timestamp;P1;durP1;ratioP1;P2;durP2;ratioP2
13291;SDS011;6714;53.056;8.690;2023-08-06T00:02:04;1.90;;;1.80;;
13291;SDS011;6714;53.056;8.690;2023-08-06T00:04:46;2.20;;;2.10;;
13291;SDS011;6714;53.056;8.690;2023-08-06T00:07:29;2.00;;;1.90;;
13291;SDS011;6714;53.056;8.690;2023-08-06T00:10:11;2.40;;;2.17;;
13291;SDS011;6714;53.056;8.690;2023-08-06T00:12:55;3.60;;;2.10;;
13291;SDS011;6714;53.056;8.690;2023-08-06T00:15:37;2.53;;;2.33;;
13291;SDS011;6714;53.056;8.690;2023-08-06T00:18:21;2.83;;;2.30;;
13291;SDS011;6714;53.056;8.690;2023-08-06T00:21:04;2.20;;;2.10;;
13291;SDS011;6714;53.056;8.690;2023-08-06T00:23:46;2.47;;;2.27;;
13291;SDS011;6714;53.056;8.690;2023-08-06T00:26:28;2.40;;;2.20;;
13291;SDS011;6714;53.056;8.690;2023-08-06T00:29:10;2.43;;;1.97;;
13291;SDS011;6714;53.056;8.690;2023-08-06T00:31:53;2.10;;;2.00;;
13291;SDS011;6714;53.056;8.690;2023-08-06T00:34:37;2.30;;;2.10;;
13291;SDS011;6714;53.056;8.690;2023-08-06T00:37:20;2.30;;;2.10;;
13291;SDS011;6714;53.056;8.690;2023-08-06T00:40:02;2.17;;;2.07;;
13291;SDS011;6714;53.056;8.690;2023-08-06T00:42:44;2.10;;;2.00;;
13291;SDS011;6714;53.056;8.690;2023-08-06T00:45:27;2.37;;;2.17;;
13291;SDS011;6714;53.056;8.690;2023-08-06T00:48:10;2.40;;;2.20;;
13291;SDS011;6714;53.056;8.690;2023-08-06T00:50:54;2.27;;;2.10;;
13291;SDS011;6714;53.056;8.690;2023-08-06T00:53:37;2.47;;;2.27;;
13291;SDS011;6714;53.056;8.690;2023-08-06T00:56:19;3.20;;;2.20;;
13291;SDS011;6714;53.056;8.690;2023-08-06T00:59:01;4.57;;;2.33;;
13291;SDS011;6714;53.056;8.690;2023-08-06T01:01:44;3.67;;;2.03;;
13291;SDS011;6714;53.056;8.690;2023-08-06T01:04:27;2.67;;;2.30;;
13291;SDS011;6714;53.056;8.690;2023-08-06T01:07:12;2.23;;;1.87;;
13291;SDS011;6714;53.056;8.690;2023-08-06T01:10:04;2.60;;;2.40;;
13291;SDS011;6714;53.056;8.690;2023-08-06T01:12:54;1.80;;;1.70;;
13291;SDS011;6714;53.056;8.690;2023-08-06T01:15:46;2.40;;;2.20;;
13291;SDS011;6714;53.056;8.690;2023-08-06T01:18:29;1.97;;;1.87;;
13291;SDS011;6714;53.056;8.690;2023-08-06T01:21:13;2.00;;;1.90;;
13291;SDS011;6714;53.056;8.690;2023-08-06T01:23:56;2.77;;;2.17;;
13291;SDS011;6714;53.056;8.690;2023-08-06T01:26:39;2.10;;;1.60;;
13291;SDS011;6714;53.056;8.690;2023-08-06T01:29:25;2.23;;;1.87;;
13291;SDS011;6714;53.056;8.690;2023-08-06T01:32:10;2.30;;;2.10;;
13291;SDS011;6714;53.056;8.690;2023-08-06T01:34:53;2.23;;;2.00;;
13291;SDS011;6714;53.056;8.690;2023-08-06T01:37:38;1.97;;;1.87;;
13291;SDS011;6714;53.056;8.690;2023-08-06T01:40:21;2.10;;;2.00;;
13291;SDS011;6714;53.056;8.690;2023-08-06T01:43:03;2.90;;;2.40;;
13291;SDS011;6714;53.056;8.690;2023-08-06T01:45:46;3.77;;;2.23;;
13291;SDS011;6714;53.056;8.690;2023-08-06T01:48:28;2.33;;;2.00;;
13291;SDS011;6714;53.056;8.690;2023-08-06T01:51:11;1.90;;;1.80;;
13291;SDS011;6714;53.056;8.690;2023-08-06T01:53:56;1.93;;;1.83;;
13291;SDS011;6714;53.056;8.690;2023-08-06T01:56:39;2.20;;;2.10;;
13291;SDS011;6714;53.056;8.690;2023-08-06T01:59:21;2.63;;;2.20;;
13291;SDS011;6714;53.056;8.690;2023-08-06T02:02:04;2.20;;;2.10;;
13291;SDS011;6714;53.056;8.690;2023-08-06T02:04:46;2.23;;;2.13;;
13291;SDS011;6714;53.056;8.690;2023-08-06T02:07:29;3.97;;;2.20;;
13291;SDS011;6714;53.056;8.690;2023-08-06T02:10:13;2.00;;;1.90;;
13291;SDS011;6714;53.056;8.690;2023-08-06T02:12:55;1.70;;;1.60;;
13291;SDS011;6714;53.056;8.690;2023-08-06T02:15:41;3.97;;;1.90;;
13291;SDS011;6714;53.056;8.690;2023-08-06T02:18:23;2.47;;;2.00;;
13291;SDS011;6714;53.056;8.690;2023-08-06T02:21:06;2.53;;;2.30;;
13291;SDS011;6714;53.056;8.690;2023-08-06T02:23:48;2.30;;;2.10;;
13291;SDS011;6714;53.056;8.690;2023-08-06T02:26:32;3.73;;;2.30;;
13291;SDS011;6714;53.056;8.690;2023-08-06T02:29:15;4.13;;;2.50;;
13291;SDS011;6714;53.056;8.690;2023-08-06T02:31:57;2.30;;;2.13;;
13291;SDS011;6714;53.056;8.690;2023-08-06T02:34:41;2.40;;;2.30;;
13291;SDS011;6714;53.056;8.690;2023-08-06T02:37:24;3.23;;;2.43;;
13291;SDS011;6714;53.056;8.690;2023-08-06T02:40:06;2.30;;;2.20;;
13291;SDS011;6714;53.056;8.690;2023-08-06T02:42:50;3.27;;;2.33;;
13291;SDS011;6714;53.056;8.690;2023-08-06T02:45:33;2.17;;;2.07;;
13291;SDS011;6714;53.056;8.690;2023-08-06T02:48:15;3.13;;;2.07;;
13291;SDS011;6714;53.056;8.690;2023-08-06T02:50:58;2.57;;;2.27;;
13291;SDS011;6714;53.056;8.690;2023-08-06T02:53:41;2.13;;;2.03;;
13291;SDS011;6714;53.056;8.690;2023-08-06T02:56:23;3.07;;;2.07;;
13291;SDS011;6714;53.056;8.690;2023-08-06T02:59:08;3.03;;;2.00;;
13291;SDS011;6714;53.056;8.690;2023-08-06T03:01:50;2.20;;;2.00;;
13291;SDS011;6714;53.056;8.690;2023-08-06T03:04:32;2.70;;;2.30;;
13291;SDS011;6714;53.056;8.690;2023-08-06T03:07:15;3.67;;;2.40;;
13291;SDS011;6714;53.056;8.690;2023-08-06T03:09:57;2.53;;;2.23;;
13291;SDS011;6714;53.056;8.690;2023-08-06T03:12:41;4.23;;;2.47;;
13291;SDS011;6714;53.056;8.690;2023-08-06T03:15:25;3.70;;;2.87;;
13291;SDS011;6714;53.056;8.690;2023-08-06T03:18:07;2.30;;;2.20;;
13291;SDS011;6714;53.056;8.690;2023-08-06T03:20:49;2.00;;;1.90;;
13291;SDS011;6714;53.056;8.690;2023-08-06T03:23:31;1.87;;;1.77;;
13291;SDS011;6714;53.056;8.690;2023-08-06T03:26:14;6.17;;;2.83;;
13291;SDS011;6714;53.056;8.690;2023-08-06T03:28:56;3.00;;;2.30;;
13291;SDS011;6714;53.056;8.690;2023-08-06T03:31:40;3.47;;;2.67;;
13291;SDS011;6714;53.056;8.690;2023-08-06T03:34:22;2.60;;;2.40;;
13291;SDS011;6714;53.056;8.690;2023-08-06T03:37:05;3.30;;;2.20;;
13291;SDS011;6714;53.056;8.690;2023-08-06T03:39:47;2.80;;;2.60;;
13291;SDS011;6714;53.056;8.690;2023-08-06T03:42:30;2.40;;;2.30;;
13291;SDS011;6714;53.056;8.690;2023-08-06T03:45:12;2.57;;;2.37;;
13291;SDS011;6714;53.056;8.690;2023-08-06T03:47:56;2.90;;;2.70;;
13291;SDS011;6714;53.056;8.690;2023-08-06T03:50:38;2.83;;;2.63;;
13291;SDS011;6714;53.056;8.690;2023-08-06T03:53:21;4.10;;;2.80;;
13291;SDS011;6714;53.056;8.690;2023-08-06T03:56:04;3.37;;;2.50;;
13291;SDS011;6714;53.056;8.690;2023-08-06T03:58:46;3.17;;;2.87;;
13291;SDS011;6714;53.056;8.690;2023-08-06T04:01:28;3.30;;;3.00;;
13291;SDS011;6714;53.056;8.690;2023-08-06T04:04:13;4.27;;;3.07;;
13291;SDS011;6714;53.056;8.690;2023-08-06T04:06:55;3.43;;;3.13;;
13291;SDS011;6714;53.056;8.690;2023-08-06T04:09:52;4.30;;;4.00;;
13291;SDS011;6714;53.056;8.690;2023-08-06T04:12:35;4.63;;;3.23;;
13291;SDS011;6714;53.056;8.690;2023-08-06T04:15:19;2.80;;;2.60;;
13291;SDS011;6714;53.056;8.690;2023-08-06T04:18:01;3.17;;;2.97;;
13291;SDS011;6714;53.056;8.690;2023-08-06T04:20:45;2.70;;;2.50;;
13291;SDS011;6714;53.056;8.690;2023-08-06T04:23:29;3.20;;;3.00;;
13291;SDS011;6714;53.056;8.690;2023-08-06T04:26:11;3.60;;;3.27;;
13291;SDS011;6714;53.056;8.690;2023-08-06T04:28:54;3.13;;;2.90;;
13291;SDS011;6714;53.056;8.690;2023-08-06T04:31:36;2.80;;;2.60;;
13291;SDS011;6714;53.056;8.690;2023-08-06T04:34:18;4.23;;;3.53;;
13291;SDS011;6714;53.056;8.690;2023-08-06T04:37:02;3.70;;;3.50;;
13291;SDS011;6714;53.056;8.690;2023-08-06T04:39:45;3.60;;;3.30;;
13291;SDS011;6714;53.056;8.690;2023-08-06T04:42:27;3.23;;;3.03;;
13291;SDS011;6714;53.056;8.690;2023-08-06T04:45:10;3.17;;;2.87;;
13291;SDS011;6714;53.056;8.690;2023-08-06T04:47:52;3.10;;;2.90;;
13291;SDS011;6714;53.056;8.690;2023-08-06T04:50:35;4.17;;;3.77;;
13291;SDS011;6714;53.056;8.690;2023-08-06T04:53:19;3.00;;;2.80;;
13291;SDS011;6714;53.056;8.690;2023-08-06T04:56:01;3.37;;;3.17;;
13291;SDS011;6714;53.056;8.690;2023-08-06T04:58:43;3.70;;;3.50;;
13291;SDS011;6714;53.056;8.690;2023-08-06T05:01:26;3.77;;;3.50;;
13291;SDS011;6714;53.056;8.690;2023-08-06T05:04:09;3.70;;;3.50;;
13291;SDS011;6714;53.056;8.690;2023-08-06T05:06:51;2.73;;;2.53;;
13291;SDS011;6714;53.056;8.690;2023-08-06T05:09:35;3.53;;;3.27;;
13291;SDS011;6714;53.056;8.690;2023-08-06T05:12:17;3.80;;;3.50;;
13291;SDS011;6714;53.056;8.690;2023-08-06T05:15:00;3.67;;;3.07;;
13291;SDS011;6714;53.056;8.690;2023-08-06T05:17:42;4.57;;;3.50;;
13291;SDS011;6714;53.056;8.690;2023-08-06T05:20:24;4.00;;;3.57;;
13291;SDS011;6714;53.056;8.690;2023-08-06T05:23:07;4.37;;;3.97;;
13291;SDS011;6714;53.056;8.690;2023-08-06T05:25:50;3.90;;;3.60;;
13291;SDS011;6714;53.056;8.690;2023-08-06T05:28:33;6.43;;;4.97;;
13291;SDS011;6714;53.056;8.690;2023-08-06T05:31:16;5.73;;;4.00;;
13291;SDS011;6714;53.056;8.690;2023-08-06T05:33:58;4.37;;;3.97;;
13291;SDS011;6714;53.056;8.690;2023-08-06T05:36:41;4.10;;;3.80;;
13291;SDS011;6714;53.056;8.690;2023-08-06T05:39:24;4.47;;;4.10;;
13291;SDS011;6714;53.056;8.690;2023-08-06T05:42:08;3.10;;;2.90;;
13291;SDS011;6714;53.056;8.690;2023-08-06T05:44:50;4.80;;;4.30;;
13291;SDS011;6714;53.056;8.690;2023-08-06T05:47:32;4.80;;;4.40;;
13291;SDS011;6714;53.056;8.690;2023-08-06T05:50:14;4.70;;;4.40;;
13291;SDS011;6714;53.056;8.690;2023-08-06T05:52:57;3.53;;;3.27;;
13291;SDS011;6714;53.056;8.690;2023-08-06T05:55:39;4.27;;;3.93;;
13291;SDS011;6714;53.056;8.690;2023-08-06T05:58:23;4.53;;;4.17;;
13291;SDS011;6714;53.056;8.690;2023-08-06T06:01:09;3.70;;;3.40;;
13291;SDS011;6714;53.056;8.690;2023-08-06T06:03:51;4.17;;;3.80;;
13291;SDS011;6714;53.056;8.690;2023-08-06T06:06:34;3.90;;;3.60;;
13291;SDS011;6714;53.056;8.690;2023-08-06T06:09:16;3.90;;;3.60;;
13291;SDS011;6714;53.056;8.690;2023-08-06T06:11:58;3.83;;;3.53;;
13291;SDS011;6714;53.056;8.690;2023-08-06T06:14:44;4.30;;;3.90;;
13291;SDS011;6714;53.056;8.690;2023-08-06T06:17:26;4.10;;;3.80;;
13291;SDS011;6714;53.056;8.690;2023-08-06T06:20:09;3.90;;;3.60;;
13291;SDS011;6714;53.056;8.690;2023-08-06T06:22:51;3.40;;;3.20;;
13291;SDS011;6714;53.056;8.690;2023-08-06T06:25:34;3.90;;;3.60;;
13291;SDS011;6714;53.056;8.690;2023-08-06T06:28:16;3.90;;;3.60;;
13291;SDS011;6714;53.056;8.690;2023-08-06T06:31:01;3.00;;;2.73;;
13291;SDS011;6714;53.056;8.690;2023-08-06T06:33:44;3.10;;;2.90;;
13291;SDS011;6714;53.056;8.690;2023-08-06T06:36:26;2.63;;;2.43;;
13291;SDS011;6714;53.056;8.690;2023-08-06T06:39:09;3.47;;;3.27;;
13291;SDS011;6714;53.056;8.690;2023-08-06T06:41:51;3.40;;;3.20;;
13291;SDS011;6714;53.056;8.690;2023-08-06T06:44:34;3.83;;;3.53;;
13291;SDS011;6714;53.056;8.690;2023-08-06T06:47:18;4.00;;;3.80;;
13291;SDS011;6714;53.056;8.690;2023-08-06T06:50:00;3.87;;;3.17;;
13291;SDS011;6714;53.056;8.690;2023-08-06T06:52:42;3.10;;;2.90;;
13291;SDS011;6714;53.056;8.690;2023-08-06T06:55:24;4.43;;;4.03;;
13291;SDS011;6714;53.056;8.690;2023-08-06T06:58:07;4.63;;;4.33;;
13291;SDS011;6714;53.056;8.690;2023-08-06T07:00:50;3.67;;;3.33;;
13291;SDS011;6714;53.056;8.690;2023-08-06T07:03:34;3.80;;;3.50;;
13291;SDS011;6714;53.056;8.690;2023-08-06T07:06:17;5.17;;;4.87;;
13291;SDS011;6714;53.056;8.690;2023-08-06T07:08:59;4.20;;;3.90;;
13291;SDS011;6714;53.056;8.690;2023-08-06T07:11:42;4.30;;;3.90;;
13291;SDS011;6714;53.056;8.690;2023-08-06T07:14:25;2.80;;;2.60;;
13291;SDS011;6714;53.056;8.690;2023-08-06T07:17:07;4.37;;;4.07;;
13291;SDS011;6714;53.056;8.690;2023-08-06T07:19:52;4.50;;;4.20;;
13291;SDS011;6714;53.056;8.690;2023-08-06T07:22:34;3.10;;;2.90;;
13291;SDS011;6714;53.056;8.690;2023-08-06T07:25:16;3.90;;;3.60;;
13291;SDS011;6714;53.056;8.690;2023-08-06T07:28:00;4.60;;;4.20;;
13291;SDS011;6714;53.056;8.690;2023-08-06T07:30:43;3.07;;;2.90;;
13291;SDS011;6714;53.056;8.690;2023-08-06T07:33:26;2.60;;;2.50;;
13291;SDS011;6714;53.056;8.690;2023-08-06T07:36:12;2.60;;;2.40;;
13291;SDS011;6714;53.056;8.690;2023-08-06T07:38:54;2.20;;;2.10;;
13291;SDS011;6714;53.056;8.690;2023-08-06T07:41:37;1.83;;;1.83;;
13291;SDS011;6714;53.056;8.690;2023-08-06T07:44:19;2.50;;;2.40;;
13291;SDS011;6714;53.056;8.690;2023-08-06T07:47:02;2.47;;;2.27;;
13291;SDS011;6714;53.056;8.690;2023-08-06T07:49:45;2.47;;;2.33;;
13291;SDS011;6714;53.056;8.690;2023-08-06T07:52:29;2.33;;;2.23;;
13291;SDS011;6714;53.056;8.690;2023-08-06T07:55:13;2.33;;;2.23;;
13291;SDS011;6714;53.056;8.690;2023-08-06T07:57:55;2.03;;;1.93;;
13291;SDS011;6714;53.056;8.690;2023-08-06T08:00:38;2.40;;;2.30;;
13291;SDS011;6714;53.056;8.690;2023-08-06T08:03:25;2.40;;;2.30;;
13291;SDS011;6714;53.056;8.690;2023-08-06T08:06:08;2.70;;;2.50;;
13291;SDS011;6714;53.056;8.690;2023-08-06T08:08:52;1.93;;;1.83;;
13291;SDS011;6714;53.056;8.690;2023-08-06T08:11:34;3.17;;;2.97;;
13291;SDS011;6714;53.056;8.690;2023-08-06T08:14:17;2.30;;;2.20;;
13291;SDS011;6714;53.056;8.690;2023-08-06T08:16:59;2.30;;;2.20;;
13291;SDS011;6714;53.056;8.690;2023-08-06T08:19:41;2.20;;;2.10;;
13291;SDS011;6714;53.056;8.690;2023-08-06T08:22:24;2.07;;;1.97;;
13291;SDS011;6714;53.056;8.690;2023-08-06T08:25:08;3.87;;;3.57;;
13291;SDS011;6714;53.056;8.690;2023-08-06T08:27:51;2.10;;;1.90;;
13291;SDS011;6714;53.056;8.690;2023-08-06T08:30:33;2.77;;;2.60;;
13291;SDS011;6714;53.056;8.690;2023-08-06T08:33:17;2.77;;;2.63;;
13291;SDS011;6714;53.056;8.690;2023-08-06T08:35:59;2.70;;;2.50;;
13291;SDS011;6714;53.056;8.690;2023-08-06T08:38:42;2.90;;;2.70;;
13291;SDS011;6714;53.056;8.690;2023-08-06T08:41:26;2.70;;;2.50;;
13291;SDS011;6714;53.056;8.690;2023-08-06T08:44:10;2.37;;;2.27;;
13291;SDS011;6714;53.056;8.690;2023-08-06T08:46:53;2.30;;;2.20;;
13291;SDS011;6714;53.056;8.690;2023-08-06T08:49:35;2.87;;;2.77;;
13291;SDS011;6714;53.056;8.690;2023-08-06T08:52:18;3.07;;;2.87;;
13291;SDS011;6714;53.056;8.690;2023-08-06T08:55:01;2.10;;;2.00;;
13291;SDS011;6714;53.056;8.690;2023-08-06T08:57:46;2.50;;;2.40;;
13291;SDS011;6714;53.056;8.690;2023-08-06T09:00:28;3.27;;;2.97;;
13291;SDS011;6714;53.056;8.690;2023-08-06T09:03:11;2.33;;;2.23;;
13291;SDS011;6714;53.056;8.690;2023-08-06T09:05:54;2.90;;;2.60;;
13291;SDS011;6714;53.056;8.690;2023-08-06T09:08:39;2.50;;;2.40;;
13291;SDS011;6714;53.056;8.690;2023-08-06T09:11:21;3.13;;;2.93;;
13291;SDS011;6714;53.056;8.690;2023-08-06T09:14:05;2.55;;;2.45;;
13291;SDS011;6714;53.056;8.690;2023-08-06T09:16:49;3.03;;;2.83;;
13291;SDS011;6714;53.056;8.690;2023-08-06T09:19:31;2.60;;;2.50;;
13291;SDS011;6714;53.056;8.690;2023-08-06T09:22:14;5.35;;;4.85;;
13291;SDS011;6714;53.056;8.690;2023-08-06T09:24:57;4.30;;;3.92;;
13291;SDS011;6714;53.056;8.690;2023-08-06T09:27:39;4.32;;;4.03;;
13291;SDS011;6714;53.056;8.690;2023-08-06T09:30:30;3.28;;;3.08;;
13291;SDS011;6714;53.056;8.690;2023-08-06T09:33:12;3.47;;;3.28;;
13291;SDS011;6714;53.056;8.690;2023-08-06T09:36:05;2.90;;;2.70;;
13291;SDS011;6714;53.056;8.690;2023-08-06T09:38:49;4.68;;;4.18;;
13291;SDS011;6714;53.056;8.690;2023-08-06T09:41:32;3.80;;;3.50;;
13291;SDS011;6714;53.056;8.690;2023-08-06T09:44:15;4.43;;;4.05;;
13291;SDS011;6714;53.056;8.690;2023-08-06T09:47:01;3.03;;;2.83;;
13291;SDS011;6714;53.056;8.690;2023-08-06T09:49:44;2.42;;;2.33;;
13291;SDS011;6714;53.056;8.690;2023-08-06T09:52:26;2.28;;;2.17;;
13291;SDS011;6714;53.056;8.690;2023-08-06T09:55:09;2.20;;;2.10;;
13291;SDS011;6714;53.056;8.690;2023-08-06T09:57:55;2.42;;;2.30;;
13291;SDS011;6714;53.056;8.690;2023-08-06T10:00:38;2.00;;;1.90;;
13291;SDS011;6714;53.056;8.690;2023-08-06T10:03:22;2.22;;;2.13;;
13291;SDS011;6714;53.056;8.690;2023-08-06T10:06:04;2.00;;;1.90;;
13291;SDS011;6714;53.056;8.690;2023-08-06T10:08:49;1.77;;;1.67;;
13291;SDS011;6714;53.056;8.690;2023-08-06T10:11:31;1.60;;;1.60;;
13291;SDS011;6714;53.056;8.690;2023-08-06T10:14:15;1.63;;;1.52;;
13291;SDS011;6714;53.056;8.690;2023-08-06T10:16:58;1.80;;;1.70;;
13291;SDS011;6714;53.056;8.690;2023-08-06T10:19:43;1.38;;;1.30;;
13291;SDS011;6714;53.056;8.690;2023-08-06T10:22:25;1.50;;;1.50;;
13291;SDS011;6714;53.056;8.690;2023-08-06T10:25:08;1.50;;;1.50;;
13291;SDS011;6714;53.056;8.690;2023-08-06T10:27:53;1.80;;;1.70;;
13291;SDS011;6714;53.056;8.690;2023-08-06T10:30:41;1.60;;;1.60;;
13291;SDS011;6714;53.056;8.690;2023-08-06T10:33:24;1.95;;;1.85;;
13291;SDS011;6714;53.056;8.690;2023-08-06T10:36:23;1.85;;;1.73;;
13291;SDS011;6714;53.056;8.690;2023-08-06T10:39:08;1.70;;;1.60;;
13291;SDS011;6714;53.056;8.690;2023-08-06T10:41:56;1.90;;;1.80;;
13291;SDS011;6714;53.056;8.690;2023-08-06T10:44:42;1.90;;;1.80;;
13291;SDS011;6714;53.056;8.690;2023-08-06T10:47:45;2.10;;;2.00;;
13291;SDS011;6714;53.056;8.690;2023-08-06T10:50:28;2.08;;;1.95;;
13291;SDS011;6714;53.056;8.690;2023-08-06T10:53:13;1.80;;;1.70;;
13291;SDS011;6714;53.056;8.690;2023-08-06T10:55:56;1.70;;;1.60;;
13291;SDS011;6714;53.056;8.690;2023-08-06T10:58:38;1.88;;;1.77;;
13291;SDS011;6714;53.056;8.690;2023-08-06T11:01:20;1.45;;;1.38;;
13291;SDS011;6714;53.056;8.690;2023-08-06T11:04:04;1.48;;;1.48;;
13291;SDS011;6714;53.056;8.690;2023-08-06T11:06:51;1.73;;;1.63;;
13291;SDS011;6714;53.056;8.690;2023-08-06T11:09:36;1.38;;;1.38;;
13291;SDS011;6714;53.056;8.690;2023-08-06T11:12:19;1.35;;;1.35;;
13291;SDS011;6714;53.056;8.690;2023-08-06T11:15:02;2.97;;;1.75;;
13291;SDS011;6714;53.056;8.690;2023-08-06T11:17:44;1.80;;;1.70;;
13291;SDS011;6714;53.056;8.690;2023-08-06T11:20:27;1.63;;;1.52;;
13291;SDS011;6714;53.056;8.690;2023-08-06T11:23:10;2.00;;;1.90;;
13291;SDS011;6714;53.056;8.690;2023-08-06T11:25:54;1.67;;;1.60;;
13291;SDS011;6714;53.056;8.690;2023-08-06T11:28:36;1.73;;;1.63;;
13291;SDS011;6714;53.056;8.690;2023-08-06T11:31:19;1.38;;;1.38;;
13291;SDS011;6714;53.056;8.690;2023-08-06T11:34:02;1.35;;;1.35;;
13291;SDS011;6714;53.056;8.690;2023-08-06T11:36:45;1.30;;;1.30;;
13291;SDS011;6714;53.056;8.690;2023-08-06T11:39:27;1.55;;;1.52;;
13291;SDS011;6714;53.056;8.690;2023-08-06T11:42:12;1.40;;;1.30;;
13291;SDS011;6714;53.056;8.690;2023-08-06T11:44:56;1.13;;;1.13;;
13291;SDS011;6714;53.056;8.690;2023-08-06T11:47:38;1.33;;;1.33;;
13291;SDS011;6714;53.056;8.690;2023-08-06T11:50:22;1.90;;;1.40;;
13291;SDS011;6714;53.056;8.690;2023-08-06T11:53:04;1.25;;;1.17;;
13291;SDS011;6714;53.056;8.690;2023-08-06T11:55:47;1.27;;;1.23;;
13291;SDS011;6714;53.056;8.690;2023-08-06T11:58:31;2.88;;;1.52;;
13291;SDS011;6714;53.056;8.690;2023-08-06T12:01:13;1.40;;;1.30;;
13291;SDS011;6714;53.056;8.690;2023-08-06T12:03:58;1.60;;;1.50;;
13291;SDS011;6714;53.056;8.690;2023-08-06T12:06:41;1.48;;;1.42;;
13291;SDS011;6714;53.056;8.690;2023-08-06T12:09:24;1.40;;;1.40;;
13291;SDS011;6714;53.056;8.690;2023-08-06T12:12:07;1.50;;;1.40;;
13291;SDS011;6714;53.056;8.690;2023-08-06T12:14:51;1.30;;;1.30;;
13291;SDS011;6714;53.056;8.690;2023-08-06T12:17:34;1.42;;;1.42;;
13291;SDS011;6714;53.056;8.690;2023-08-06T12:20:17;1.40;;;1.40;;
13291;SDS011;6714;53.056;8.690;2023-08-06T12:22:59;1.38;;;1.30;;
13291;SDS011;6714;53.056;8.690;2023-08-06T12:25:42;1.33;;;1.33;;
13291;SDS011;6714;53.056;8.690;2023-08-06T12:28:25;1.40;;;1.40;;
13291;SDS011;6714;53.056;8.690;2023-08-06T12:31:09;1.10;;;1.10;;
13291;SDS011;6714;53.056;8.690;2023-08-06T12:33:52;1.10;;;1.10;;
13291;SDS011;6714;53.056;8.690;2023-08-06T12:36:34;1.40;;;1.40;;
13291;SDS011;6714;53.056;8.690;2023-08-06T12:39:19;1.20;;;1.20;;
13291;SDS011;6714;53.056;8.690;2023-08-06T12:42:01;1.40;;;1.40;;
13291;SDS011;6714;53.056;8.690;2023-08-06T12:44:44;1.33;;;1.33;;
13291;SDS011;6714;53.056;8.690;2023-08-06T12:47:27;1.50;;;1.40;;
13291;SDS011;6714;53.056;8.690;2023-08-06T12:50:10;2.08;;;1.30;;
13291;SDS011;6714;53.056;8.690;2023-08-06T12:52:52;1.55;;;1.55;;
13291;SDS011;6714;53.056;8.690;2023-08-06T12:55:34;1.58;;;1.50;;
13291;SDS011;6714;53.056;8.690;2023-08-06T12:58:17;1.38;;;1.38;;
13291;SDS011;6714;53.056;8.690;2023-08-06T13:01:00;1.60;;;1.50;;
13291;SDS011;6714;53.056;8.690;2023-08-06T13:03:44;1.67;;;1.67;;
13291;SDS011;6714;53.056;8.690;2023-08-06T13:06:27;1.55;;;1.52;;
13291;SDS011;6714;53.056;8.690;2023-08-06T13:09:10;1.55;;;1.55;;
13291;SDS011;6714;53.056;8.690;2023-08-06T13:11:52;1.65;;;1.65;;
13291;SDS011;6714;53.056;8.690;2023-08-06T13:14:35;1.80;;;1.70;;
13291;SDS011;6714;53.056;8.690;2023-08-06T13:17:17;1.40;;;1.40;;
13291;SDS011;6714;53.056;8.690;2023-08-06T13:20:01;1.50;;;1.50;;
13291;SDS011;6714;53.056;8.690;2023-08-06T13:22:43;1.58;;;1.50;;
13291;SDS011;6714;53.056;8.690;2023-08-06T13:25:26;1.52;;;1.42;;
13291;SDS011;6714;53.056;8.690;2023-08-06T13:28:09;1.80;;;1.70;;
13291;SDS011;6714;53.056;8.690;2023-08-06T13:30:54;1.73;;;1.63;;
13291;SDS011;6714;53.056;8.690;2023-08-06T13:33:36;1.60;;;1.60;;
13291;SDS011;6714;53.056;8.690;2023-08-06T13:36:20;2.00;;;1.80;;
13291;SDS011;6714;53.056;8.690;2023-08-06T13:39:02;1.55;;;1.45;;
13291;SDS011;6714;53.056;8.690;2023-08-06T13:41:45;2.40;;;1.48;;
13291;SDS011;6714;53.056;8.690;2023-08-06T13:44:27;1.30;;;1.30;;
13291;SDS011;6714;53.056;8.690;2023-08-06T13:47:10;1.63;;;1.52;;
13291;SDS011;6714;53.056;8.690;2023-08-06T13:49:52;1.80;;;1.63;;
13291;SDS011;6714;53.056;8.690;2023-08-06T13:52:36;1.50;;;1.40;;
13291;SDS011;6714;53.056;8.690;2023-08-06T13:55:18;1.60;;;1.50;;
13291;SDS011;6714;53.056;8.690;2023-08-06T13:58:01;1.90;;;1.70;;
13291;SDS011;6714;53.056;8.690;2023-08-06T14:00:43;1.65;;;1.58;;
13291;SDS011;6714;53.056;8.690;2023-08-06T14:03:26;1.52;;;1.45;;
13291;SDS011;6714;53.056;8.690;2023-08-06T14:06:08;1.33;;;1.33;;
13291;SDS011;6714;53.056;8.690;2023-08-06T14:08:52;1.73;;;1.60;;
13291;SDS011;6714;53.056;8.690;2023-08-06T14:11:35;1.60;;;1.50;;
13291;SDS011;6714;53.056;8.690;2023-08-06T14:14:17;2.15;;;1.95;;
13291;SDS011;6714;53.056;8.690;2023-08-06T14:17:08;1.88;;;1.77;;
13291;SDS011;6714;53.056;8.690;2023-08-06T14:19:51;2.00;;;1.90;;
13291;SDS011;6714;53.056;8.690;2023-08-06T14:22:33;1.92;;;1.83;;
13291;SDS011;6714;53.056;8.690;2023-08-06T14:25:17;1.70;;;1.60;;
13291;SDS011;6714;53.056;8.690;2023-08-06T14:27:59;2.00;;;1.90;;
13291;SDS011;6714;53.056;8.690;2023-08-06T14:30:42;1.80;;;1.70;;
13291;SDS011;6714;53.056;8.690;2023-08-06T14:33:24;1.55;;;1.55;;
13291;SDS011;6714;53.056;8.690;2023-08-06T14:36:06;1.73;;;1.63;;
13291;SDS011;6714;53.056;8.690;2023-08-06T14:38:49;1.60;;;1.60;;
13291;SDS011;6714;53.056;8.690;2023-08-06T14:41:33;2.38;;;2.13;;
13291;SDS011;6714;53.056;8.690;2023-08-06T14:44:15;2.00;;;1.90;;
13291;SDS011;6714;53.056;8.690;2023-08-06T14:46:58;2.10;;;1.90;;
13291;SDS011;6714;53.056;8.690;2023-08-06T14:49:40;2.08;;;1.98;;
13291;SDS011;6714;53.056;8.690;2023-08-06T14:52:22;2.20;;;2.00;;
13291;SDS011;6714;53.056;8.690;2023-08-06T14:55:05;2.05;;;1.95;;
13291;SDS011;6714;53.056;8.690;2023-08-06T14:57:49;2.20;;;2.00;;
13291;SDS011;6714;53.056;8.690;2023-08-06T15:00:31;2.00;;;1.90;;
13291;SDS011;6714;53.056;8.690;2023-08-06T15:03:14;1.85;;;1.75;;
13291;SDS011;6714;53.056;8.690;2023-08-06T15:05:56;1.88;;;1.75;;
13291;SDS011;6714;53.056;8.690;2023-08-06T15:08:39;2.00;;;1.90;;
13291;SDS011;6714;53.056;8.690;2023-08-06T15:11:24;1.70;;;1.60;;
13291;SDS011;6714;53.056;8.690;2023-08-06T15:14:08;2.10;;;1.90;;
13291;SDS011;6714;53.056;8.690;2023-08-06T15:16:50;1.73;;;1.63;;
13291;SDS011;6714;53.056;8.690;2023-08-06T15:19:33;1.60;;;1.60;;
13291;SDS011;6714;53.056;8.690;2023-08-06T15:22:15;1.83;;;1.73;;
13291;SDS011;6714;53.056;8.690;2023-08-06T15:24:57;1.88;;;1.77;;
13291;SDS011;6714;53.056;8.690;2023-08-06T15:27:40;1.55;;;1.55;;
13291;SDS011;6714;53.056;8.690;2023-08-06T15:30:24;1.77;;;1.67;;
13291;SDS011;6714;53.056;8.690;2023-08-06T15:33:06;1.92;;;1.83;;
13291;SDS011;6714;53.056;8.690;2023-08-06T15:35:48;1.90;;;1.80;;
13291;SDS011;6714;53.056;8.690;2023-08-06T15:38:30;1.60;;;1.50;;
13291;SDS011;6714;53.056;8.690;2023-08-06T15:41:13;2.10;;;1.90;;
13291;SDS011;6714;53.056;8.690;2023-08-06T15:43:56;2.03;;;1.90;;
13291;SDS011;6714;53.056;8.690;2023-08-06T15:46:40;1.75;;;1.65;;
13291;SDS011;6714;53.056;8.690;2023-08-06T15:49:22;1.70;;;1.60;;
13291;SDS011;6714;53.056;8.690;2023-08-06T15:52:05;1.80;;;1.70;;
13291;SDS011;6714;53.056;8.690;2023-08-06T15:54:48;1.70;;;1.60;;
13291;SDS011;6714;53.056;8.690;2023-08-06T15:57:31;1.80;;;1.70;;
13291;SDS011;6714;53.056;8.690;2023-08-06T16:00:13;1.98;;;1.88;;
13291;SDS011;6714;53.056;8.690;2023-08-06T16:02:57;1.85;;;1.75;;
13291;SDS011;6714;53.056;8.690;2023-08-06T16:05:39;1.90;;;1.80;;
13291;SDS011;6714;53.056;8.690;2023-08-06T16:08:23;1.90;;;1.80;;
13291;SDS011;6714;53.056;8.690;2023-08-06T16:11:05;1.90;;;1.80;;
13291;SDS011;6714;53.056;8.690;2023-08-06T16:13:48;2.13;;;2.03;;
13291;SDS011;6714;53.056;8.690;2023-08-06T16:16:31;1.95;;;1.83;;
13291;SDS011;6714;53.056;8.690;2023-08-06T16:19:15;2.42;;;2.05;;
13291;SDS011;6714;53.056;8.690;2023-08-06T16:21:57;2.25;;;2.15;;
13291;SDS011;6714;53.056;8.690;2023-08-06T16:24:40;2.10;;;2.00;;
13291;SDS011;6714;53.056;8.690;2023-08-06T16:27:22;2.30;;;2.10;;
13291;SDS011;6714;53.056;8.690;2023-08-06T16:30:05;3.20;;;2.05;;
13291;SDS011;6714;53.056;8.690;2023-08-06T16:32:47;2.15;;;1.95;;
13291;SDS011;6714;53.056;8.690;2023-08-06T16:35:31;1.70;;;1.60;;
13291;SDS011;6714;53.056;8.690;2023-08-06T16:38:13;2.20;;;2.10;;